createdAt,value
2023-02-06T00:00:24.312Z,13.07
2023-02-06T00:02:50.832Z,9.70
2023-02-06T00:05:17.403Z,11.60
2023-02-06T00:07:43.894Z,9.93
2023-02-06T00:10:10.359Z,14.35
2023-02-06T00:12:36.772Z,9.98
2023-02-06T00:15:03.414Z,11.70
2023-02-06T00:17:29.834Z,13.85
2023-02-06T00:19:56.252Z,11.50
2023-02-06T00:22:22.699Z,13.13
2023-02-06T00:24:49.085Z,11.82
2023-02-06T00:27:15.501Z,10.63
2023-02-06T00:29:41.965Z,11.20
2023-02-06T00:32:08.393Z,10.07
2023-02-06T00:34:34.833Z,9.98
2023-02-06T00:37:01.401Z,12.00
2023-02-06T00:39:27.886Z,10.63
2023-02-06T00:41:55.722Z,10.27
2023-02-06T00:44:22.952Z,11.52
2023-02-06T00:46:49.665Z,13.70
2023-02-06T00:49:16.397Z,13.95
2023-02-06T00:51:42.906Z,11.05
2023-02-06T00:54:09.629Z,11.00
2023-02-06T00:56:36.214Z,11.35
2023-02-06T00:59:02.660Z,14.50
2023-02-06T01:01:29.192Z,10.52
2023-02-06T01:03:55.694Z,15.95
2023-02-06T01:06:22.239Z,10.48
2023-02-06T01:08:48.783Z,11.48
2023-02-06T01:11:19.257Z,12.52
2023-02-06T01:13:45.687Z,10.07
2023-02-06T01:16:16.101Z,9.35
2023-02-06T01:18:42.649Z,12.75
2023-02-06T01:21:17.470Z,11.50
2023-02-06T01:23:44.437Z,10.05
2023-02-06T01:26:15.701Z,10.13
2023-02-06T01:28:44.407Z,10.77
2023-02-06T01:31:17.258Z,11.52
2023-02-06T01:33:45.645Z,12.45
2023-02-06T01:36:12.838Z,12.57
2023-02-06T01:38:40.016Z,13.52
2023-02-06T01:41:08.045Z,13.55
2023-02-06T01:43:37.354Z,16.17
2023-02-06T01:48:38.116Z,11.93
2023-02-06T01:51:07.634Z,11.40
2023-02-06T01:53:35.133Z,12.18
2023-02-06T01:56:04.580Z,12.55
2023-02-06T01:58:36.875Z,12.43
2023-02-06T02:01:04.385Z,11.80
2023-02-06T02:03:34.045Z,9.23
2023-02-06T02:06:07.185Z,9.65
2023-02-06T02:08:38.619Z,8.95
2023-02-06T02:11:08.037Z,9.60
2023-02-06T02:16:12.764Z,12.00
2023-02-06T02:19:13.532Z,10.50
2023-02-06T02:22:11.058Z,9.95
2023-02-06T02:24:49.670Z,9.82
2023-02-06T02:27:25.186Z,10.55
2023-02-06T02:30:05.801Z,12.13
2023-02-06T02:33:09.430Z,11.52
2023-02-06T02:35:48.108Z,11.35
2023-02-06T02:38:39.784Z,9.05
2023-02-06T02:41:29.505Z,10.18
2023-02-06T02:44:08.669Z,12.88
2023-02-06T02:46:44.757Z,10.00
2023-02-06T02:49:15.482Z,11.25
2023-02-06T02:51:42.784Z,11.60
2023-02-06T02:54:09.990Z,13.18
2023-02-06T02:56:36.565Z,11.77
2023-02-06T02:59:25.200Z,9.02
2023-02-06T03:01:59.395Z,11.32
2023-02-06T03:04:31.925Z,11.65
2023-02-06T03:07:25.187Z,10.57
2023-02-06T03:09:57.625Z,9.65
2023-02-06T03:12:42.697Z,12.13
2023-02-06T03:15:35.721Z,12.95
2023-02-06T03:18:23.046Z,10.52
2023-02-06T03:20:51.205Z,12.05
2023-02-06T03:23:31.061Z,11.82
2023-02-06T03:26:01.855Z,11.55
2023-02-06T03:28:38.057Z,17.20
2023-02-06T03:31:09.557Z,11.38
2023-02-06T03:33:43.485Z,11.27
2023-02-06T03:36:16.996Z,9.98
2023-02-06T03:38:46.129Z,11.75
2023-02-06T03:41:15.398Z,14.00
2023-02-06T03:46:12.852Z,11.50
2023-02-06T03:48:46.163Z,12.80
2023-02-06T03:51:19.314Z,13.57
2023-02-06T03:53:48.901Z,12.65
2023-02-06T03:56:27.735Z,15.45
2023-02-06T03:58:54.249Z,11.30
2023-02-06T04:01:21.583Z,14.73
2023-02-06T04:03:48.702Z,13.63
2023-02-06T04:06:15.376Z,14.95
2023-02-06T04:08:41.835Z,13.73
2023-02-06T04:11:08.283Z,13.45
2023-02-06T04:13:34.722Z,14.48
2023-02-06T04:16:02.165Z,14.73
2023-02-06T04:18:28.665Z,16.80
2023-02-06T04:20:55.202Z,14.05
2023-02-06T04:23:22.194Z,15.07
2023-02-06T04:25:48.641Z,14.82
2023-02-06T04:28:15.244Z,14.65
2023-02-06T04:30:41.784Z,14.43
2023-02-06T04:33:08.279Z,14.07
2023-02-06T04:35:35.143Z,14.48
2023-02-06T04:38:01.721Z,13.90
2023-02-06T04:40:28.214Z,14.80
2023-02-06T04:42:55.008Z,15.90
2023-02-06T04:45:21.467Z,13.63
2023-02-06T04:47:50.830Z,16.40
2023-02-06T04:50:18.226Z,15.55
2023-02-06T04:52:44.949Z,20.27
2023-02-06T04:55:11.376Z,19.08
2023-02-06T04:57:38.155Z,14.90
2023-02-06T05:00:06.643Z,18.15
2023-02-06T05:02:39.553Z,14.60
2023-02-06T05:05:08.460Z,16.33
2023-02-06T05:07:36.057Z,16.05
2023-02-06T05:10:02.699Z,15.35
2023-02-06T05:12:29.220Z,15.07
2023-02-06T05:14:55.848Z,15.95
2023-02-06T05:17:22.414Z,18.25
2023-02-06T05:19:48.952Z,14.80
2023-02-06T05:22:15.370Z,14.93
2023-02-06T05:24:41.770Z,14.90
2023-02-06T05:27:08.183Z,14.13
2023-02-06T05:29:34.648Z,14.60
2023-02-06T05:32:01.051Z,18.20
2023-02-06T05:34:27.468Z,17.50
2023-02-06T05:36:53.888Z,15.73
2023-02-06T05:39:21.013Z,16.35
2023-02-06T05:41:47.460Z,17.38
2023-02-06T05:44:13.931Z,20.98
2023-02-06T05:46:40.438Z,34.75
2023-02-06T05:49:07.034Z,197.52
2023-02-06T05:51:36.073Z,132.40
2023-02-06T05:54:02.738Z,65.03
2023-02-06T05:56:29.201Z,27.45
2023-02-06T05:58:55.601Z,23.27
2023-02-06T06:01:22.153Z,20.38
2023-02-06T06:03:48.613Z,23.95
2023-02-06T06:06:15.198Z,20.45
2023-02-06T06:08:41.606Z,20.80
2023-02-06T06:11:08.186Z,24.80
2023-02-06T06:13:34.644Z,19.67
2023-02-06T06:16:01.109Z,14.18
2023-02-06T06:18:27.573Z,15.18
2023-02-06T06:20:54.108Z,16.52
2023-02-06T06:23:20.536Z,16.75
2023-02-06T06:25:47.884Z,19.65
2023-02-06T06:28:14.381Z,14.80
2023-02-06T06:30:40.859Z,16.10
2023-02-06T06:33:07.321Z,16.70
2023-02-06T06:35:33.814Z,20.75
2023-02-06T06:38:00.404Z,16.17
2023-02-06T06:40:26.876Z,17.08
2023-02-06T06:42:53.385Z,17.48
2023-02-06T06:45:19.888Z,16.08
2023-02-06T06:47:46.381Z,16.90
2023-02-06T06:50:12.783Z,17.70
2023-02-06T06:52:39.245Z,14.98
2023-02-06T06:55:06.017Z,16.75
2023-02-06T06:57:32.584Z,18.98
2023-02-06T06:59:59.184Z,17.42
2023-02-06T07:02:25.738Z,15.95
2023-02-06T07:04:52.181Z,13.27
2023-02-06T07:07:21.891Z,14.00
2023-02-06T07:09:48.381Z,15.68
2023-02-06T07:12:14.860Z,17.15
2023-02-06T07:14:41.312Z,17.52
2023-02-06T07:17:07.757Z,17.17
2023-02-06T07:19:34.187Z,17.55
2023-02-06T07:22:00.615Z,16.55
2023-02-06T07:24:27.134Z,18.15
2023-02-06T07:26:53.598Z,21.85
2023-02-06T07:29:20.107Z,21.35
2023-02-06T07:31:46.599Z,16.25
2023-02-06T07:34:13.124Z,17.13
2023-02-06T07:36:39.597Z,14.55
2023-02-06T07:39:06.189Z,15.80
2023-02-06T07:41:32.694Z,19.08
2023-02-06T07:43:59.242Z,17.10
2023-02-06T07:46:25.793Z,15.45
2023-02-06T07:48:52.250Z,16.35
2023-02-06T07:51:19.042Z,14.90
2023-02-06T07:53:45.455Z,16.15
2023-02-06T07:56:14.382Z,18.00
2023-02-06T07:58:40.830Z,19.15
2023-02-06T08:01:07.979Z,16.95
2023-02-06T08:03:34.552Z,16.58
2023-02-06T08:06:01.312Z,18.08
2023-02-06T08:08:27.734Z,16.33
2023-02-06T08:10:54.139Z,18.13
2023-02-06T08:13:20.578Z,20.38
2023-02-06T08:15:47.066Z,14.98
2023-02-06T08:18:13.517Z,22.00
2023-02-06T08:20:39.896Z,18.48
2023-02-06T08:23:08.130Z,15.48
2023-02-06T08:25:35.008Z,18.83
2023-02-06T08:28:01.807Z,14.38
2023-02-06T08:30:28.342Z,18.63
2023-02-06T08:32:54.859Z,20.02
2023-02-06T08:35:21.372Z,15.98
2023-02-06T08:37:48.349Z,15.10
2023-02-06T08:40:15.408Z,17.85
2023-02-06T08:42:41.838Z,18.80
2023-02-06T08:45:08.861Z,19.60
2023-02-06T08:47:35.318Z,16.30
2023-02-06T08:50:03.546Z,16.50
2023-02-06T08:52:30.385Z,16.75
2023-02-06T08:54:56.803Z,16.98
2023-02-06T08:57:23.299Z,15.73
2023-02-06T08:59:49.939Z,16.20
2023-02-06T09:02:16.409Z,22.67
2023-02-06T09:04:43.333Z,15.88
2023-02-06T09:07:09.873Z,15.20
2023-02-06T09:09:36.501Z,20.40
2023-02-06T09:12:04.140Z,18.55
2023-02-06T09:14:31.555Z,17.27
2023-02-06T09:16:58.402Z,17.88
2023-02-06T09:19:25.791Z,17.10
2023-02-06T09:21:54.340Z,16.13
2023-02-06T09:24:20.996Z,16.20
2023-02-06T09:26:59.382Z,15.27
2023-02-06T09:29:28.952Z,20.00
2023-02-06T09:31:57.185Z,18.00
2023-02-06T09:34:25.869Z,20.23
2023-02-06T09:36:54.477Z,20.27
2023-02-06T09:39:23.461Z,20.90
2023-02-06T09:42:12.913Z,26.42
2023-02-06T09:44:44.367Z,15.65
2023-02-06T09:47:31.193Z,18.98
2023-02-06T09:50:07.457Z,16.42
2023-02-06T09:53:24.936Z,14.30
2023-02-06T09:56:20.368Z,20.73
2023-02-06T09:59:05.806Z,23.30
2023-02-06T10:01:43.109Z,21.55
2023-02-06T10:04:41.805Z,18.80
2023-02-06T10:07:22.376Z,21.17
2023-02-06T10:09:56.944Z,39.70
2023-02-06T10:12:23.361Z,22.73
2023-02-06T10:15:03.252Z,20.45
2023-02-06T10:17:40.344Z,25.60
2023-02-06T10:20:12.350Z,19.98
2023-02-06T10:22:57.594Z,20.08
2023-02-06T10:25:32.366Z,18.98
2023-02-06T10:28:23.047Z,19.80
2023-02-06T10:31:23.946Z,20.95
2023-02-06T10:34:35.261Z,19.77
2023-02-06T10:37:19.973Z,19.77
2023-02-06T10:40:28.699Z,24.80
2023-02-06T10:43:20.062Z,23.45
2023-02-06T10:46:19.836Z,18.25
2023-02-06T10:49:10.189Z,17.90
2023-02-06T10:51:42.547Z,20.90
2023-02-06T10:54:18.832Z,18.35
2023-02-06T10:56:46.902Z,16.08
2023-02-06T10:59:22.731Z,20.48
2023-02-06T11:01:53.817Z,21.05
2023-02-06T11:04:28.955Z,18.42
2023-02-06T11:07:00.550Z,18.17
2023-02-06T11:09:27.325Z,18.02
2023-02-06T11:11:56.915Z,19.08
2023-02-06T11:14:28.568Z,17.20
2023-02-06T11:17:01.798Z,22.45
2023-02-06T11:19:40.360Z,18.80
2023-02-06T11:22:12.439Z,16.58
2023-02-06T11:24:57.493Z,16.73
2023-02-06T11:27:24.524Z,19.02
2023-02-06T11:29:52.259Z,16.70
2023-02-06T11:33:04.357Z,17.92
2023-02-06T11:35:39.386Z,20.10
2023-02-06T11:38:16.954Z,19.13
2023-02-06T11:40:53.364Z,19.13
2023-02-06T11:43:25.812Z,20.17
2023-02-06T11:46:16.144Z,23.52
2023-02-06T11:48:56.226Z,20.65
2023-02-06T11:51:24.537Z,22.20
2023-02-06T11:53:57.298Z,20.27
2023-02-06T11:56:24.474Z,19.42
2023-02-06T11:59:24.160Z,18.65
2023-02-06T12:01:50.846Z,18.95
2023-02-06T12:04:25.068Z,19.13
2023-02-06T12:07:17.591Z,17.05
2023-02-06T12:09:44.471Z,18.88
2023-02-06T12:12:22.348Z,17.08
2023-02-06T12:15:02.953Z,17.05
2023-02-06T12:17:40.546Z,19.88
2023-02-06T12:20:26.453Z,22.23
2023-02-06T12:23:34.161Z,17.13
2023-02-06T12:26:05.020Z,17.95
2023-02-06T12:28:39.113Z,12.88
2023-02-06T12:31:53.893Z,18.92
2023-02-06T12:34:25.543Z,14.90
2023-02-06T12:37:10.731Z,17.10
2023-02-06T12:39:37.368Z,15.20
2023-02-06T12:42:31.955Z,13.98
2023-02-06T12:45:31.502Z,14.38
2023-02-06T12:48:07.036Z,17.98
2023-02-06T12:50:59.357Z,14.02
2023-02-06T12:53:35.281Z,14.00
2023-02-06T12:56:10.226Z,14.65
2023-02-06T12:58:42.837Z,14.88
2023-02-06T13:01:30.692Z,19.33
2023-02-06T13:04:04.451Z,15.40
2023-02-06T13:06:53.164Z,14.70
2023-02-06T13:09:28.116Z,15.95
2023-02-06T13:12:12.942Z,14.15
2023-02-06T13:14:47.705Z,15.57
2023-02-06T13:17:32.926Z,17.23
2023-02-06T13:20:16.469Z,16.38
2023-02-06T13:22:50.036Z,12.30
2023-02-06T13:25:25.542Z,22.83
2023-02-06T13:30:31.668Z,14.27
2023-02-06T13:33:22.937Z,15.15
2023-02-06T13:36:03.919Z,14.40
2023-02-06T13:38:42.281Z,13.57
2023-02-06T13:41:14.815Z,15.35
2023-02-06T13:43:45.985Z,16.67
2023-02-06T13:46:15.909Z,14.35
2023-02-06T13:49:19.600Z,16.02
2023-02-06T13:52:31.284Z,15.20
2023-02-06T13:55:37.903Z,15.10
2023-02-06T13:58:29.890Z,15.48
2023-02-06T14:00:58.468Z,15.15
2023-02-06T14:03:34.028Z,15.15
2023-02-06T14:06:22.343Z,15.55
2023-02-06T14:09:08.799Z,16.08
2023-02-06T14:12:18.636Z,14.60
2023-02-06T14:15:03.709Z,14.73
2023-02-06T14:17:59.378Z,12.30
2023-02-06T14:20:49.224Z,15.80
2023-02-06T14:23:27.106Z,14.20
2023-02-06T14:26:06.668Z,17.13
2023-02-06T14:28:46.916Z,11.80
2023-02-06T14:31:33.329Z,13.57
2023-02-06T14:34:45.237Z,13.13
2023-02-06T14:37:53.031Z,14.05
2023-02-06T14:42:58.262Z,15.43
2023-02-06T14:45:40.916Z,13.02
2023-02-06T14:48:22.926Z,10.65
2023-02-06T14:50:53.312Z,13.73
2023-02-06T14:53:39.840Z,10.77
2023-02-06T14:56:16.143Z,10.48
2023-02-06T14:58:46.284Z,14.35
2023-02-06T15:01:20.701Z,22.88
2023-02-06T15:03:49.831Z,23.52
2023-02-06T15:06:30.542Z,15.80
2023-02-06T15:08:57.154Z,19.67
2023-02-06T15:11:26.717Z,15.82
2023-02-06T15:13:55.629Z,15.35
2023-02-06T15:16:23.205Z,16.08
2023-02-06T15:18:49.765Z,15.68
2023-02-06T15:21:18.860Z,24.50
2023-02-06T15:26:32.615Z,19.23
2023-02-06T15:29:01.135Z,20.33
2023-02-06T15:31:29.456Z,19.27
2023-02-06T15:34:00.156Z,16.50
2023-02-06T15:36:37.383Z,17.42
2023-02-06T15:39:07.674Z,16.50
2023-02-06T15:41:35.203Z,18.63
2023-02-06T15:44:09.569Z,16.27
2023-02-06T15:46:37.260Z,18.77
2023-02-06T15:49:04.207Z,16.70
2023-02-06T15:51:40.748Z,19.02
2023-02-06T15:54:16.519Z,23.63
2023-02-06T15:56:47.009Z,21.85
2023-02-06T15:59:21.364Z,18.33
2023-02-06T16:01:48.677Z,20.70
2023-02-06T16:04:15.142Z,20.35
2023-02-06T16:06:41.589Z,24.45
2023-02-06T16:09:08.550Z,20.38
2023-02-06T16:11:47.418Z,14.88
2023-02-06T16:14:32.769Z,18.83
2023-02-06T16:17:03.565Z,17.73
2023-02-06T16:19:49.781Z,14.82
2023-02-06T16:22:23.709Z,15.65
2023-02-06T16:24:53.042Z,16.02
2023-02-06T16:27:22.740Z,16.23
2023-02-06T16:29:52.858Z,14.48
2023-02-06T16:32:22.212Z,14.32
2023-02-06T16:34:48.708Z,15.93
2023-02-06T16:37:22.334Z,15.48
2023-02-06T16:39:49.160Z,13.50
2023-02-06T16:42:27.218Z,14.38
2023-02-06T16:44:59.392Z,16.42
2023-02-06T16:47:25.966Z,17.70
2023-02-06T16:49:52.601Z,13.63
2023-02-06T16:52:29.044Z,13.05
2023-02-06T16:54:58.848Z,10.23
2023-02-06T16:57:32.290Z,12.38
2023-02-06T16:59:59.302Z,8.23
2023-02-06T17:02:27.266Z,10.52
2023-02-06T17:04:54.346Z,10.70
2023-02-06T17:07:23.744Z,11.23
2023-02-06T17:09:51.558Z,11.95
2023-02-06T17:12:20.573Z,8.88
2023-02-06T17:14:48.752Z,10.23
2023-02-06T17:17:17.987Z,10.90
2023-02-06T17:19:45.264Z,10.88
2023-02-06T17:22:12.171Z,8.52
2023-02-06T17:24:39.947Z,10.18
2023-02-06T17:27:11.156Z,13.40
2023-02-06T17:29:37.603Z,11.35
2023-02-06T17:32:06.096Z,10.93
2023-02-06T17:34:32.931Z,12.05
2023-02-06T17:36:59.810Z,11.65
2023-02-06T17:39:26.364Z,16.30
2023-02-06T17:41:53.101Z,13.80
2023-02-06T17:44:20.087Z,13.35
2023-02-06T17:46:48.311Z,13.82
2023-02-06T17:49:16.003Z,11.25
2023-02-06T17:51:43.953Z,9.77
2023-02-06T17:54:11.810Z,10.18
2023-02-06T17:56:39.004Z,10.25
2023-02-06T17:59:05.413Z,12.18
2023-02-06T18:01:31.885Z,8.95
2023-02-06T18:04:00.791Z,9.50
2023-02-06T18:06:31.053Z,56.08
2023-02-06T18:08:57.499Z,17.77
2023-02-06T18:11:24.024Z,11.68
2023-02-06T18:13:50.515Z,11.00
2023-02-06T18:16:21.185Z,10.52
2023-02-06T18:18:48.424Z,10.20
2023-02-06T18:21:16.098Z,9.95
2023-02-06T18:23:42.624Z,20.13
2023-02-06T18:26:09.971Z,17.98
2023-02-06T18:28:38.234Z,13.38
2023-02-06T18:31:05.964Z,21.92
2023-02-06T18:33:35.227Z,14.50
2023-02-06T18:36:06.101Z,11.80
2023-02-06T18:38:32.858Z,11.88
2023-02-06T18:41:04.375Z,10.20
2023-02-06T18:43:30.986Z,12.45
2023-02-06T18:45:57.387Z,11.93
2023-02-06T18:48:24.050Z,10.75
2023-02-06T18:50:50.552Z,12.55
2023-02-06T18:53:16.943Z,13.80
2023-02-06T18:55:43.363Z,9.40
2023-02-06T18:58:09.812Z,10.77
2023-02-06T19:00:37.846Z,10.98
2023-02-06T19:03:04.860Z,10.00
2023-02-06T19:05:34.957Z,10.80
2023-02-06T19:08:01.383Z,12.43
2023-02-06T19:10:28.014Z,11.45
2023-02-06T19:12:54.449Z,10.77
2023-02-06T19:15:20.926Z,12.00
2023-02-06T19:17:49.298Z,10.20
2023-02-06T19:20:15.908Z,10.18
2023-02-06T19:22:42.328Z,10.32
2023-02-06T19:25:14.259Z,8.50
2023-02-06T19:27:41.018Z,8.02
2023-02-06T19:30:08.430Z,9.02
2023-02-06T19:32:35.685Z,7.25
2023-02-06T19:35:03.009Z,10.32
2023-02-06T19:37:29.454Z,8.27
2023-02-06T19:39:55.940Z,8.43
2023-02-06T19:42:22.468Z,9.80
2023-02-06T19:44:55.173Z,10.68
2023-02-06T19:47:22.139Z,10.20
2023-02-06T19:49:52.917Z,7.93
2023-02-06T19:52:20.322Z,8.70
2023-02-06T19:54:47.769Z,8.60
2023-02-06T19:57:14.913Z,9.52
2023-02-06T19:59:42.476Z,8.30
2023-02-06T20:02:10.314Z,8.48
2023-02-06T20:04:37.742Z,15.52
2023-02-06T20:07:04.220Z,7.90
2023-02-06T20:09:30.976Z,9.48
2023-02-06T20:11:57.855Z,8.32
2023-02-06T20:14:24.936Z,8.95
2023-02-06T20:16:51.556Z,9.07
2023-02-06T20:19:22.073Z,6.43
2023-02-06T20:21:51.157Z,12.88
2023-02-06T20:26:48.737Z,6.95
2023-02-06T20:29:24.996Z,6.97
2023-02-06T20:31:52.467Z,7.32
2023-02-06T20:34:19.429Z,6.10
2023-02-06T20:36:46.364Z,8.50
2023-02-06T20:39:13.692Z,8.32
2023-02-06T20:41:40.768Z,8.90
2023-02-06T20:44:11.334Z,7.47
2023-02-06T20:46:38.022Z,7.50
2023-02-06T20:49:09.235Z,10.65
2023-02-06T20:51:35.756Z,8.15
2023-02-06T20:54:02.205Z,12.00
2023-02-06T20:56:28.684Z,10.25
2023-02-06T20:58:56.256Z,9.23
2023-02-06T21:01:28.068Z,10.82
2023-02-06T21:03:57.894Z,10.55
2023-02-06T21:06:24.314Z,11.63
2023-02-06T21:08:52.816Z,11.77
2023-02-06T21:11:19.324Z,13.45
2023-02-06T21:13:45.807Z,9.52
2023-02-06T21:16:13.630Z,14.55
2023-02-06T21:18:42.441Z,11.60
2023-02-06T21:21:11.542Z,8.95
2023-02-06T21:23:39.358Z,10.90
2023-02-06T21:26:06.848Z,10.32
2023-02-06T21:28:35.132Z,11.95
2023-02-06T21:31:07.303Z,11.02
2023-02-06T21:33:35.155Z,11.13
2023-02-06T21:36:03.644Z,11.02
2023-02-06T21:38:30.123Z,15.20
2023-02-06T21:41:03.483Z,12.10
2023-02-06T21:43:30.459Z,13.10
2023-02-06T21:45:57.981Z,12.68
2023-02-06T21:48:24.455Z,10.20
2023-02-06T21:50:50.885Z,10.43
2023-02-06T21:53:17.295Z,11.93
2023-02-06T21:55:44.624Z,13.77
2023-02-06T21:58:15.649Z,13.18
2023-02-06T22:00:47.266Z,15.02
2023-02-06T22:03:14.426Z,15.48
2023-02-06T22:05:40.953Z,10.18
2023-02-06T22:08:07.395Z,11.43
2023-02-06T22:10:36.978Z,11.30
2023-02-06T22:13:05.447Z,14.50
2023-02-06T22:15:32.729Z,13.00
2023-02-06T22:17:59.309Z,16.20
2023-02-06T22:20:26.150Z,12.70
2023-02-06T22:22:54.447Z,17.55
2023-02-06T22:25:21.258Z,16.73
2023-02-06T22:27:47.734Z,15.90
2023-02-06T22:30:14.311Z,13.85
2023-02-06T22:32:40.778Z,15.40
2023-02-06T22:35:07.800Z,18.00
2023-02-06T22:37:34.581Z,15.40
2023-02-06T22:40:01.004Z,17.08
2023-02-06T22:42:27.465Z,14.50
2023-02-06T22:44:53.979Z,14.48
2023-02-06T22:47:20.412Z,17.95
2023-02-06T22:49:49.666Z,20.05
2023-02-06T22:52:34.452Z,19.40
2023-02-06T22:55:03.037Z,15.32
2023-02-06T22:57:29.904Z,16.92
2023-02-06T22:59:56.304Z,16.83
2023-02-06T23:02:22.803Z,21.33
2023-02-06T23:04:49.261Z,18.85
2023-02-06T23:07:15.700Z,13.73
2023-02-06T23:09:42.086Z,14.32
2023-02-06T23:12:11.356Z,10.20
2023-02-06T23:17:04.285Z,14.48
2023-02-06T23:19:31.114Z,15.38
2023-02-06T23:21:57.916Z,12.98
2023-02-06T23:24:24.531Z,16.80
2023-02-06T23:26:53.273Z,18.27
2023-02-06T23:29:20.826Z,14.15
2023-02-06T23:31:48.379Z,16.05
2023-02-06T23:34:16.936Z,17.08
2023-02-06T23:36:44.866Z,16.63
2023-02-06T23:39:11.996Z,18.77
2023-02-06T23:41:39.118Z,16.63
2023-02-06T23:44:07.182Z,17.27
2023-02-06T23:46:35.463Z,18.00
2023-02-06T23:49:02.366Z,15.32
2023-02-06T23:51:29.143Z,16.33
2023-02-06T23:53:55.641Z,16.52
2023-02-06T23:56:27.996Z,20.17
2023-02-06T23:58:56.549Z,18.85
